Time;durP1;ratioP1;P1;durP2;ratioP2;P2;SDS_P1;SDS_P2;PMS_P1;PMS_P2;Temp;Humidity;BMP_temperature;BMP_pressure;BME280_temperature;BME280_humidity;BME280_pressure;Samples;Min_cycle;Max_cycle;Signal;HPM_P1;HPM_P2
2022/06/21 00:01:12;;;;;;;2.80;1.70;;;;;;;19.46;53.83;99815.19;4897562;29;20032;-91
2022/06/21 00:03:37;;;;;;;2.80;1.73;;;;;;;19.41;53.15;99814.94;4904689;29;20032;-92
2022/06/21 00:06:05;;;;;;;3.10;1.80;;;;;;;19.38;53.48;99823.44;4886959;29;20092;-92
2022/06/21 00:08:33;;;;;;;4.20;2.20;;;;;;;19.24;53.85;99826.25;4902761;29;20031;-91
2022/06/21 00:10:59;;;;;;;1.92;1.73;;;;;;;19.19;54.43;99827.69;4889827;29;20084;-92
2022/06/21 00:13:28;;;;;;;4.72;1.95;;;;;;;19.17;54.38;99827.06;4907924;29;20475;-92
2022/06/21 00:15:56;;;;;;;3.63;2.00;;;;;;;18.86;55.38;99815.72;4902807;29;20374;-92
2022/06/21 00:18:24;;;;;;;4.15;2.30;;;;;;;18.62;55.84;99808.00;4886939;29;20088;-92
2022/06/21 00:20:50;;;;;;;3.67;2.22;;;;;;;18.79;55.37;99812.13;4886786;29;20447;-92
2022/06/21 00:23:18;;;;;;;3.78;1.80;;;;;;;18.91;55.95;99817.84;4896772;29;20071;-92
2022/06/21 00:25:46;;;;;;;;;;;;;;;18.88;56.27;99802.81;4905397;29;20489;-92
2022/06/21 00:28:15;;;;;;;3.90;2.10;;;;;;;18.62;55.92;99797.16;4917151;29;20255;-93
2022/06/21 00:30:41;;;;;;;3.80;2.10;;;;;;;18.51;55.69;99795.78;4886598;29;20099;-92
2022/06/21 00:33:15;;;;;;;3.78;1.90;;;;;;;18.21;56.39;99786.91;4886668;29;20546;-93
2022/06/21 00:35:42;;;;;;;4.38;2.30;;;;;;;18.39;56.80;99789.16;4882607;29;20051;-92
2022/06/21 00:38:15;;;;;;;3.25;2.10;;;;;;;18.76;56.09;99782.69;4867692;29;20052;-91
2022/06/21 00:40:41;;;;;;;3.95;2.08;;;;;;;18.88;55.07;99781.13;4919375;29;20019;-92
2022/06/21 00:43:16;;;;;;;3.15;1.98;;;;;;;19.04;55.71;99783.56;4894523;29;20466;-92
2022/06/21 00:45:46;;;;;;;4.25;2.05;;;;;;;19.08;55.48;99776.72;4882851;29;20036;-93
2022/06/21 00:48:32;;;;;;;5.20;2.22;;;;;;;19.03;55.28;99775.66;4899834;29;20035;-92
2022/06/21 00:51:04;;;;;;;2.90;2.20;;;;;;;19.09;54.94;99785.69;4906553;29;20040;-92
2022/06/21 00:53:39;;;;;;;2.30;2.10;;;;;;;19.19;54.56;99800.56;4885846;29;20046;-92
2022/06/21 00:56:22;;;;;;;4.03;2.00;;;;;;;19.13;54.90;99797.81;4899410;29;20083;-92
2022/06/21 00:58:47;;;;;;;2.65;2.13;;;;;;;18.87;54.75;99793.00;4893086;29;20043;-93
2022/06/21 01:01:28;;;;;;;4.15;2.28;;;;;;;18.49;54.61;99789.72;4912868;29;20027;-92
2022/06/21 01:03:57;;;;;;;3.45;2.08;;;;;;;18.66;55.48;99798.44;4901697;29;20027;-91
2022/06/21 01:06:32;;;;;;;3.60;2.03;;;;;;;18.74;55.05;99799.16;4904379;29;20036;-92
2022/06/21 01:09:11;;;;;;;5.22;2.30;;;;;;;18.76;54.88;99788.13;4897694;29;20052;-92
2022/06/21 01:11:41;;;;;;;4.10;2.17;;;;;;;18.67;55.76;99782.00;4899155;29;20036;-92
2022/06/21 01:14:08;;;;;;;4.88;2.50;;;;;;;18.16;55.54;99784.78;4893268;29;20035;-92
2022/06/21 01:16:33;;;;;;;2.72;2.00;;;;;;;17.82;56.25;99784.56;4903454;29;20028;-93
2022/06/21 01:19:01;;;;;;;3.75;2.00;;;;;;;17.76;57.32;99788.00;4896335;29;20020;-92
2022/06/21 01:21:29;;;;;;;2.95;2.05;;;;;;;18.10;56.81;99780.13;4895151;29;20103;-92
2022/06/21 01:24:13;;;;;;;3.40;2.23;;;;;;;18.36;56.15;99766.03;4892872;29;20357;-92
2022/06/21 01:26:50;;;;;;;3.95;2.20;;;;;;;18.45;55.95;99774.88;4901045;29;20040;-92
2022/06/21 01:29:19;;;;;;;3.00;2.08;;;;;;;18.51;55.47;99768.69;4900518;29;20086;-92
2022/06/21 01:31:45;;;;;;;3.30;2.30;;;;;;;18.36;55.72;99767.91;4882142;29;20024;-92
2022/06/21 01:34:18;;;;;;;2.30;2.10;;;;;;;18.10;56.14;99763.88;4905949;29;20386;-92
2022/06/21 01:36:55;;;;;;;3.78;1.98;;;;;;;18.22;56.11;99759.63;4891352;29;20123;-92
2022/06/21 01:39:28;;;;;;;4.18;2.10;;;;;;;18.26;55.96;99754.69;4879219;29;20020;-91
2022/06/21 01:42:03;;;;;;;3.08;2.03;;;;;;;18.30;55.82;99755.97;4888444;29;20051;-92
2022/06/21 01:44:32;;;;;;;3.53;2.25;;;;;;;18.31;55.75;99757.63;4890371;29;20119;-92
2022/06/21 01:47:00;;;;;;;4.03;2.40;;;;;;;18.28;56.24;99754.47;4901596;29;20024;-92
2022/06/21 01:49:29;;;;;;;4.85;2.20;;;;;;;18.36;55.95;99765.19;4903228;29;20039;-92
2022/06/21 01:51:55;;;;;;;;;;;;;;;18.41;56.15;99768.16;4876549;29;20042;-91
2022/06/21 01:54:23;;;;;;;4.63;2.22;;;;;;;18.30;55.41;99758.69;4905480;29;19951;-92
2022/06/21 01:56:50;;;;;;;2.67;1.95;;;;;;;18.24;55.67;99756.75;4903942;29;20032;-91
2022/06/21 01:59:43;;;;;;;3.90;2.22;;;;;;;18.01;56.92;99759.63;4889636;29;20061;-92
2022/06/21 02:02:15;;;;;;;4.32;2.25;;;;;;;18.14;56.34;99748.09;4878796;29;20045;-92
2022/06/21 02:04:56;;;;;;;2.80;2.10;;;;;;;18.05;56.39;99735.72;4896954;29;20490;-91
2022/06/21 02:07:25;;;;;;;3.70;2.30;;;;;;;17.73;56.72;99731.59;4884861;29;20163;-91
2022/06/21 02:10:09;;;;;;;3.63;2.45;;;;;;;18.00;56.18;99746.28;4904128;29;20070;-92
2022/06/21 02:12:36;;;;;;;4.78;2.58;;;;;;;18.08;56.82;99741.59;4909409;29;20024;-92
2022/06/21 02:15:05;;;;;;;4.97;2.45;;;;;;;17.99;56.58;99748.16;4903635;29;20091;-91
2022/06/21 02:17:34;;;;;;;3.72;2.53;;;;;;;17.62;56.69;99735.59;4903840;29;20059;-91
2022/06/21 02:20:40;;;;;;;4.03;2.40;;;;;;;17.65;57.46;99728.97;4870830;29;20119;-92
2022/06/21 02:23:06;;;;;;;3.72;2.35;;;;;;;17.58;57.58;99720.78;4829643;29;20493;-91
2022/06/21 02:25:32;;;;;;;3.45;2.58;;;;;;;17.70;57.08;99711.16;4890273;29;20051;-91
2022/06/21 02:28:06;;;;;;;4.20;2.50;;;;;;;17.77;56.84;99713.94;4901493;29;20128;-92
2022/06/21 02:30:32;;;;;;;2.58;2.38;;;;;;;17.93;56.44;99708.28;4884875;29;20024;-92
2022/06/21 02:33:00;;;;;;;4.50;2.65;;;;;;;17.88;56.99;99694.50;4904766;29;20019;-92
2022/06/21 02:35:30;;;;;;;5.18;2.80;;;;;;;17.79;56.56;99707.31;4894434;29;20483;-92
2022/06/21 02:37:58;;;;;;;3.95;2.55;;;;;;;17.87;56.83;99720.72;4902888;29;20092;-92
2022/06/21 02:40:33;;;;;;;4.40;2.80;;;;;;;17.96;55.96;99721.44;4882766;29;20020;-93
2022/06/21 02:43:03;;;;;;;4.22;2.40;;;;;;;17.84;55.99;99717.56;4919612;29;20470;-93
2022/06/21 02:46:02;;;;;;;3.80;2.70;;;;;;;17.75;56.91;99726.81;4885059;29;20036;-93
2022/06/21 02:48:33;;;;;;;4.38;2.55;;;;;;;17.85;56.96;99728.19;4884917;29;20534;-92
2022/06/21 02:51:02;;;;;;;3.95;2.75;;;;;;;17.77;57.01;99720.19;4910080;29;20072;-93
2022/06/21 02:53:31;;;;;;;4.28;2.92;;;;;;;17.58;56.63;99702.69;4894068;29;20479;-92
2022/06/21 02:55:59;;;;;;;;;;;;;;;17.30;56.99;99705.22;4891184;29;20050;-93
2022/06/21 02:58:36;;;;;;;4.03;2.25;;;;;;;17.53;57.03;99698.88;4903543;29;19914;-92
2022/06/21 03:01:03;;;;;;;4.35;2.40;;;;;;;17.50;56.50;99704.63;4897972;29;20119;-91
2022/06/21 03:03:30;;;;;;;3.92;2.45;;;;;;;17.54;56.78;99701.38;4901573;29;20024;-92
2022/06/21 03:05:58;;;;;;;4.53;2.50;;;;;;;17.23;57.59;99708.84;4906805;29;20031;-92
2022/06/21 03:08:25;;;;;;;4.03;2.47;;;;;;;17.33;58.23;99719.38;4888348;29;20063;-92
2022/06/21 03:10:51;;;;;;;4.45;2.55;;;;;;;17.51;57.54;99720.69;4901236;29;20703;-93
2022/06/21 03:13:20;;;;;;;5.40;2.40;;;;;;;17.59;57.31;99698.94;4891868;29;20024;-92
2022/06/21 03:15:50;;;;;;;3.85;2.58;;;;;;;17.51;57.53;99711.72;4901255;29;20028;-92
2022/06/21 03:18:18;;;;;;;4.50;2.35;;;;;;;17.34;57.79;99716.47;4884716;29;20475;-93
2022/06/21 03:20:43;;;;;;;3.05;2.50;;;;;;;17.36;57.52;99722.53;4905687;29;20040;-91
2022/06/21 03:23:12;;;;;;;2.78;2.35;;;;;;;17.43;57.85;99728.88;4894987;29;20032;-92
2022/06/21 03:25:45;;;;;;;2.65;2.30;;;;;;;17.20;57.68;99726.28;4889658;29;20040;-92
2022/06/21 03:28:19;;;;;;;3.50;2.47;;;;;;;17.07;57.84;99725.25;4923640;29;20521;-93
2022/06/21 03:30:45;;;;;;;5.07;2.45;;;;;;;16.86;57.56;99728.66;4914614;29;20025;-91
2022/06/21 03:33:11;;;;;;;3.55;2.22;;;;;;;17.16;58.16;99732.25;4905859;29;20035;-92
2022/06/21 03:35:36;;;;;;;5.10;2.53;;;;;;;17.21;57.24;99730.66;4906285;29;20028;-91
2022/06/21 03:38:02;;;;;;;2.60;2.40;;;;;;;17.30;57.13;99736.81;4895558;29;20032;-92
2022/06/21 03:43:32;;;;;;;2.75;2.33;;;;;;;17.15;57.36;99736.81;4905618;29;20043;-91
2022/06/21 03:46:01;;;;;;;3.03;2.40;;;;;;;17.35;57.26;99733.53;4887857;29;20486;-91
2022/06/21 03:48:31;;;;;;;5.03;3.08;;;;;;;17.43;57.56;99733.44;4902783;29;20062;-92
2022/06/21 03:51:03;;;;;;;3.42;2.88;;;;;;;17.30;58.02;99716.03;4886448;29;20491;-92
2022/06/21 03:53:33;;;;;;;3.58;2.67;;;;;;;16.96;57.72;99734.63;4896230;29;20039;-91
2022/06/21 03:56:05;;;;;;;3.97;2.67;;;;;;;16.67;58.19;99736.25;4904966;29;20366;-92
2022/06/21 03:59:01;;;;;;;5.60;2.80;;;;;;;16.58;59.40;99728.41;4889280;29;20115;-93
2022/06/21 04:01:33;;;;;;;3.53;2.75;;;;;;;16.87;59.05;99714.13;4883068;29;20028;-91
2022/06/21 04:05:40;;;;;;;;;;;;;;;;;;;;;
2022/06/21 04:08:57;;;;;;;;;;;;;;;;;;;;;
2022/06/21 04:16:03;;;;;;;;;;;;;;;;;;;;;
2022/06/21 04:26:34;;;;;;;;;;;;;;;;;;;;;
2022/06/21 04:30:20;;;;;;;;;;;;;;;;;;;;;
2022/06/21 04:37:30;;;;;;;;;;;;;;;;;;;;;
2022/06/21 04:51:13;;;;;;;;;;;;;;;;;;;;;
2022/06/21 04:58:04;;;;;;;;;;;;;;;;;;;;;
2022/06/21 05:04:50;;;;;;;5.10;2.90;;;;;;;17.48;59.63;99666.97;4774243;29;20042;-96
2022/06/21 05:08:09;;;;;;;;;;;;;;;;;;;;;
2022/06/21 05:14:38;;;;;;;;;;;;;;;;;;;;;
2022/06/21 05:17:10;;;;;;;5.38;3.05;;;;;;;17.58;60.20;99699.13;4892944;29;20046;-96
2022/06/21 05:19:40;;;;;;;4.13;2.90;;;;;;;17.60;59.73;99702.50;4886065;29;20092;-96
2022/06/21 05:22:37;;;;;;;;;;;;;;;;;;;;;
2022/06/21 05:25:25;;;;;;;6.25;3.00;;;;;;;17.62;59.71;99700.44;4903776;29;20046;-96
2022/06/21 05:28:30;;;;;;;;;;;;;;;;;;;;;
2022/06/21 05:31:53;;;;;;;5.45;2.92;;;;;;;17.72;59.27;99686.63;4919300;29;20042;-96
2022/06/21 05:34:43;;;;;;;4.30;3.10;;;;;;;17.71;59.26;99687.66;4897829;29;20062;-96
2022/06/21 05:37:48;;;;;;;6.20;3.40;;;;;;;17.72;59.43;99690.19;4902146;29;20106;-96
2022/06/21 05:40:45;;;;;;;;;;;;;;;;;;;;;
2022/06/21 05:43:14;;;;;;;4.18;3.10;;;;;;;17.71;59.50;99679.53;4911151;29;20027;-94
2022/06/21 05:45:41;;;;;;;6.18;3.65;;;;;;;17.69;58.90;99693.25;4867197;29;20038;-94
2022/06/21 05:48:19;;;;;;;6.22;3.50;;;;;;;17.75;59.48;99691.66;4867090;29;20039;-95
2022/06/21 05:50:45;;;;;;;3.30;3.00;;;;;;;17.83;59.03;99684.25;4880790;29;20047;-94
2022/06/21 05:53:21;;;;;;;5.45;3.40;;;;;;;17.79;58.66;99690.25;4885508;29;20036;-94
2022/06/21 05:55:48;;;;;;;5.00;3.20;;;;;;;17.81;58.85;99690.88;4885745;29;20032;-94
2022/06/21 05:58:21;;;;;;;5.60;3.55;;;;;;;17.82;58.72;99688.00;4878682;29;20031;-89
2022/06/21 06:01:11;;;;;;;6.68;3.30;;;;;;;17.79;59.33;99691.09;4892203;29;20194;-89
2022/06/21 06:03:41;;;;;;;6.63;3.42;;;;;;;17.84;59.74;99698.63;4896516;29;20036;-90
2022/06/21 06:06:11;;;;;;;5.05;3.28;;;;;;;17.85;59.44;99698.44;4894850;29;20063;-89
2022/06/21 06:08:39;;;;;;;5.60;3.80;;;;;;;17.86;59.54;99704.69;4893971;29;20032;-88
2022/06/21 06:11:11;;;;;;;7.60;3.78;;;;;;;17.86;58.91;99700.09;4876903;29;20036;-89
2022/06/21 06:13:40;;;;;;;4.93;3.10;;;;;;;17.91;59.76;99694.13;4881291;29;20546;-88
2022/06/21 06:16:13;;;;;;;5.93;3.67;;;;;;;17.93;59.21;99692.06;4874598;29;20036;-89
2022/06/21 06:18:52;;;;;;;5.78;3.70;;;;;;;17.91;60.30;99688.72;4894007;29;20024;-90
2022/06/21 06:21:21;;;;;;;6.20;3.45;;;;;;;18.17;59.71;99683.59;4879260;29;20017;-89
2022/06/21 06:23:53;;;;;;;5.20;3.35;;;;;;;18.18;59.36;99692.53;4879333;29;20028;-89
2022/06/21 06:26:20;;;;;;;5.57;3.70;;;;;;;18.09;59.50;99685.59;4896758;29;20024;-90
2022/06/21 06:28:56;;;;;;;6.60;3.78;;;;;;;18.04;59.25;99678.06;4881679;29;20043;-88
2022/06/21 06:31:56;;;;;;;5.70;3.70;;;;;;;18.03;60.17;99689.06;4901513;29;20095;-85
2022/06/21 06:34:24;;;;;;;6.43;3.90;;;;;;;17.97;60.58;99687.94;4895797;29;20075;-86
2022/06/21 06:36:53;;;;;;;5.32;3.30;;;;;;;18.11;60.18;99684.38;4897883;29;20105;-85
2022/06/21 06:39:28;;;;;;;6.72;3.78;;;;;;;18.27;60.04;99698.66;4884682;29;20138;-86
2022/06/21 06:42:19;;;;;;;5.45;3.63;;;;;;;18.33;59.71;99704.13;4900314;29;20064;-85
2022/06/21 06:44:48;;;;;;;4.38;3.72;;;;;;;18.34;60.04;99702.25;4875105;29;20067;-85
2022/06/21 06:47:16;;;;;;;5.68;3.85;;;;;;;18.33;59.69;99703.31;4878486;29;20079;-85
2022/06/21 06:49:54;;;;;;;7.90;4.47;;;;;;;18.25;59.08;99709.69;4900381;29;20048;-85
2022/06/21 06:52:25;;;;;;;;;;;;;;;18.29;59.08;99704.72;4911900;29;20064;-85
2022/06/21 06:55:08;;;;;;;8.70;4.18;;;;;;;18.23;60.00;99685.50;4926242;29;19956;-85
2022/06/21 06:57:37;;;;;;;6.60;4.13;;;;;;;18.45;59.90;99693.66;4904745;29;20096;-85
2022/06/21 07:00:20;;;;;;;8.13;4.15;;;;;;;18.50;59.61;99694.72;4907766;29;20081;-85
2022/06/21 07:02:49;;;;;;;5.35;4.38;;;;;;;18.50;58.91;99705.56;4910382;29;20093;-85
2022/06/21 07:05:31;;;;;;;7.22;4.38;;;;;;;18.48;58.80;99715.75;4894091;29;20036;-84
2022/06/21 07:08:02;;;;;;;8.25;4.50;;;;;;;18.43;59.48;99720.06;4899366;29;20059;-85
2022/06/21 07:10:28;;;;;;;6.10;4.38;;;;;;;18.35;59.42;99721.03;4883907;29;20390;-85
2022/06/21 07:12:55;;;;;;;5.68;3.95;;;;;;;18.35;58.61;99718.31;4909083;29;20035;-87
2022/06/21 07:15:30;;;;;;;5.82;3.90;;;;;;;18.50;58.86;99710.97;4890481;29;20035;-85
2022/06/21 07:17:56;;;;;;;7.82;4.30;;;;;;;18.54;59.21;99716.84;4893529;29;20036;-85
2022/06/21 07:20:36;;;;;;;4.80;3.88;;;;;;;18.67;59.43;99700.72;4895499;29;20032;-85
2022/06/21 07:23:12;;;;;;;4.25;3.13;;;;;;;18.74;58.86;99709.75;4909674;29;20039;-85
2022/06/21 07:25:45;;;;;;;6.15;3.20;;;;;;;18.74;59.33;99714.31;4910397;29;20083;-85
2022/06/21 07:28:16;;;;;;;4.93;3.22;;;;;;;18.80;58.31;99710.81;4893745;29;20060;-85
2022/06/21 07:30:45;;;;;;;4.35;3.75;;;;;;;18.77;58.23;99693.09;4892705;29;20068;-86
2022/06/21 07:33:12;;;;;;;;;;;;;;;18.88;57.67;99676.28;4891411;29;20118;-85
2022/06/21 07:35:45;;;;;;;5.28;3.38;;;;;;;18.96;57.77;99679.91;4907647;29;20329;-85
2022/06/21 07:38:14;;;;;;;5.50;3.38;;;;;;;18.87;56.99;99684.59;4894486;29;20127;-86
2022/06/21 07:40:42;;;;;;;5.95;3.30;;;;;;;18.95;57.61;99681.78;4908215;29;20035;-85
2022/06/21 07:43:29;;;;;;;4.75;3.53;;;;;;;19.05;57.76;99665.97;4889639;29;20034;-86
2022/06/21 07:45:57;;;;;;;4.30;3.78;;;;;;;19.01;57.55;99656.56;4907740;29;20402;-86
2022/06/21 07:48:29;;;;;;;5.53;3.47;;;;;;;19.06;57.73;99654.09;4890473;29;20050;-86
2022/06/21 07:51:03;;;;;;;6.18;3.67;;;;;;;19.03;57.42;99661.78;4921806;29;20059;-85
2022/06/21 07:53:33;;;;;;;4.60;3.03;;;;;;;19.06;57.08;99672.25;4893189;29;20036;-85
2022/06/21 07:56:14;;;;;;;5.05;3.05;;;;;;;19.17;57.90;99671.66;4907336;29;20024;-85
2022/06/21 07:58:42;;;;;;;6.40;3.65;;;;;;;19.18;57.90;99668.75;4905144;29;20032;-85
2022/06/21 08:06:55;;;;;;;3.53;3.05;;;;;;;19.22;57.96;99650.22;4908052;29;20451;-85
2022/06/21 08:09:22;;;;;;;6.35;3.85;;;;;;;19.19;57.68;99658.75;4894223;29;20123;-85
2022/06/21 08:11:49;;;;;;;5.32;3.30;;;;;;;19.25;58.03;99646.25;4907829;29;20043;-85
2022/06/21 08:14:15;;;;;;;5.90;4.00;;;;;;;19.25;57.43;99644.38;4892683;29;20090;-85
2022/06/21 08:16:47;;;;;;;7.55;3.38;;;;;;;19.28;57.58;99635.00;4891984;29;20032;-85
2022/06/21 08:19:31;;;;;;;5.20;3.75;;;;;;;19.34;57.54;99626.06;4925429;29;20036;-85
2022/06/21 08:22:03;;;;;;;3.88;2.85;;;;;;;19.35;57.74;99635.88;4925222;29;20442;-86
2022/06/21 08:24:40;;;;;;;7.15;4.22;;;;;;;19.31;56.75;99629.19;4893254;29;20036;-84
2022/06/21 08:27:12;;;;;;;5.82;3.45;;;;;;;19.33;57.79;99622.50;4893489;29;20092;-85
2022/06/21 08:29:45;;;;;;;4.70;3.40;;;;;;;19.39;57.01;99626.28;4887667;29;20410;-85
2022/06/21 08:32:17;;;;;;;5.65;4.10;;;;;;;19.45;55.51;99620.91;4906317;29;20156;-85
2022/06/21 08:34:47;;;;;;;5.32;3.47;;;;;;;19.48;56.01;99619.66;4907083;29;20977;-85
2022/06/21 08:37:21;;;;;;;6.28;3.80;;;;;;;19.51;55.36;99605.69;4890303;29;20118;-85
2022/06/21 08:40:27;;;;;;;6.30;3.83;;;;;;;19.46;54.70;99600.06;4892708;29;20388;-85
2022/06/21 08:43:30;;;;;;;7.88;3.97;;;;;;;19.49;54.45;99602.34;4914998;29;20036;-85
2022/06/21 08:46:36;;;;;;;5.75;3.63;;;;;;;19.55;54.88;99601.56;4905659;29;20071;-84
2022/06/21 08:49:23;;;;;;;5.22;3.20;;;;;;;19.63;55.34;99584.25;4888385;29;20032;-86
2022/06/21 08:52:20;;;;;;;5.18;3.70;;;;;;;19.49;54.13;99586.06;4889879;29;20035;-85
2022/06/21 08:55:01;;;;;;;7.07;3.95;;;;;;;19.48;53.36;99578.97;4922046;29;20047;-85
2022/06/21 08:57:48;;;;;;;4.25;2.92;;;;;;;19.60;53.24;99590.09;4888041;29;20036;-85
2022/06/21 09:00:23;;;;;;;5.47;3.55;;;;;;;19.50;51.74;99594.00;4923151;29;20035;-84
2022/06/21 09:03:26;;;;;;;4.03;2.90;;;;;;;19.46;52.81;99603.59;4888914;29;20119;-85
2022/06/21 09:06:15;;;;;;;6.50;3.75;;;;;;;19.53;52.74;99602.81;4918755;29;20032;-85
2022/06/21 09:08:53;;;;;;;5.45;3.42;;;;;;;19.64;53.51;99603.03;4922603;29;20032;-85
2022/06/21 09:11:51;;;;;;;6.60;2.35;;;;;;;19.83;53.84;99598.69;4924658;29;20036;-85
2022/06/21 09:14:29;;;;;;;4.78;2.75;;;;;;;19.88;53.90;99585.38;4902827;29;20114;-86
2022/06/21 09:17:32;;;;;;;5.78;3.70;;;;;;;19.85;52.98;99582.19;4904970;29;20032;-84
2022/06/21 09:20:12;;;;;;;4.47;3.40;;;;;;;19.83;53.08;99589.72;4830143;29;20217;-90
2022/06/21 09:23:01;;;;;;;5.28;3.35;;;;;;;19.92;53.87;99594.75;4901337;29;20035;-85
2022/06/21 09:25:45;;;;;;;5.75;3.88;;;;;;;19.95;52.54;99590.78;4906768;29;20051;-85
2022/06/21 09:28:24;;;;;;;4.90;2.90;;;;;;;19.95;53.36;99596.22;4906371;29;20032;-85
2022/06/21 09:30:58;;;;;;;4.35;2.92;;;;;;;19.99;53.30;99578.47;4919344;29;20039;-86
2022/06/21 09:33:30;;;;;;;3.80;2.58;;;;;;;20.04;53.51;99573.25;4900315;29;20036;-85
2022/06/21 09:36:15;;;;;;;3.47;2.75;;;;;;;20.07;53.92;99578.25;4897629;29;20047;-86
2022/06/21 09:38:57;;;;;;;4.57;2.42;;;;;;;20.12;53.23;99576.59;4920779;29;20054;-85
2022/06/21 09:41:50;;;;;;;5.47;3.38;;;;;;;20.17;53.62;99575.13;4895456;29;20024;-86
2022/06/21 09:44:42;;;;;;;4.97;3.00;;;;;;;20.12;52.61;99573.03;4907016;29;20032;-86
2022/06/21 09:50:08;;;;;;;6.20;3.40;;;;;;;20.09;52.21;99571.59;5148328;23;20051;-85
2022/06/21 09:52:39;;;;;;;6.68;3.92;;;;;;;20.13;52.36;99570.13;4947175;29;20383;-85
2022/06/21 09:55:28;;;;;;;5.40;3.42;;;;;;;20.20;52.75;99559.25;4917978;29;20062;-85
2022/06/21 09:58:16;;;;;;;4.20;2.67;;;;;;;20.23;52.63;99568.84;4936703;29;20074;-85
2022/06/21 10:00:58;;;;;;;8.52;3.60;;;;;;;20.27;53.68;99570.94;4924405;29;20039;-85
2022/06/21 10:03:35;;;;;;;6.38;2.53;;;;;;;20.29;53.67;99566.13;4919232;29;20034;-86
2022/06/21 10:06:08;;;;;;;7.20;3.20;;;;;;;20.31;53.59;99566.75;4912083;29;20027;-89
2022/06/21 10:08:43;;;;;;;4.72;2.53;;;;;;;20.29;53.00;99560.69;4912539;29;20341;-89
2022/06/21 10:11:34;;;;;;;7.70;3.05;;;;;;;20.17;52.56;99569.69;4929409;29;20035;-88
2022/06/21 10:14:20;;;;;;;7.20;3.28;;;;;;;20.10;51.96;99588.72;4939757;29;20027;-89
2022/06/21 10:17:25;;;;;;;6.80;3.10;;;;;;;20.10;52.20;99594.97;4914645;29;20643;-90
2022/06/21 10:20:07;;;;;;;5.28;2.63;;;;;;;20.13;52.33;99610.84;4939898;29;20047;-89
2022/06/21 10:22:56;;;;;;;5.57;3.17;;;;;;;20.12;51.90;99598.31;4943833;29;20027;-89
2022/06/21 10:25:35;;;;;;;;;;;;;;;20.17;52.21;99584.13;4927016;29;20099;-90
2022/06/21 10:28:17;;;;;;;4.38;2.80;;;;;;;20.25;52.88;99588.50;4919602;29;19925;-90
2022/06/21 10:30:55;;;;;;;3.90;2.75;;;;;;;20.35;52.47;99595.19;4926971;29;20036;-91
2022/06/21 10:33:42;;;;;;;5.38;3.42;;;;;;;20.40;52.06;99591.88;4928554;29;20038;-92
2022/06/21 10:36:21;;;;;;;7.38;3.72;;;;;;;20.42;52.01;99582.47;4926209;29;20070;-91
2022/06/21 10:39:01;;;;;;;3.97;3.00;;;;;;;20.49;51.98;99568.88;4914922;29;20031;-91
2022/06/21 10:42:46;;;;;;;6.55;3.70;;;;;;;20.51;52.13;99553.19;4926370;29;20097;-90
2022/06/21 10:44:50;;;;;;;8.23;3.97;;;;;;;20.55;51.98;99551.72;4926218;29;20035;-91
2022/06/21 10:47:41;;;;;;;4.95;2.60;;;;;;;20.64;53.34;99553.16;4926672;29;20031;-92
2022/06/21 10:50:23;;;;;;;5.68;3.42;;;;;;;20.75;52.29;99557.94;4902403;29;20070;-92
2022/06/21 10:53:01;;;;;;;7.72;4.15;;;;;;;20.82;51.57;99552.50;4931387;29;20032;-92
2022/06/21 10:55:44;;;;;;;7.78;4.07;;;;;;;20.82;52.36;99552.50;4915594;29;20027;-92
2022/06/21 10:58:18;;;;;;;2.63;2.40;;;;;;;20.86;53.20;99547.47;4927119;29;20046;-91
2022/06/21 11:04:03;;;;;;;6.10;3.47;;;;;;;20.86;51.01;99556.47;4926126;29;20047;-91
2022/06/21 11:06:44;;;;;;;4.85;2.70;;;;;;;20.83;50.60;99556.91;4927524;29;20042;-91
2022/06/21 11:09:12;;;;;;;4.82;3.08;;;;;;;20.85;50.77;99557.50;4910089;29;20489;-91
2022/06/21 11:11:56;;;;;;;2.88;2.30;;;;;;;20.90;51.44;99559.59;4927377;29;20050;-91
2022/06/21 11:14:50;;;;;;;5.78;3.30;;;;;;;20.93;51.77;99553.72;4928326;29;20047;-90
2022/06/21 11:17:40;;;;;;;4.70;3.70;;;;;;;20.91;51.69;99555.81;4886696;29;20123;-90
2022/06/21 11:20:28;;;;;;;6.22;3.03;;;;;;;20.92;50.63;99557.50;4927697;29;20039;-90
2022/06/21 11:23:23;;;;;;;5.03;3.13;;;;;;;20.94;50.19;99548.06;4922702;29;20569;-90
2022/06/21 11:25:55;;;;;;;2.85;2.33;;;;;;;20.99;51.29;99555.56;4916845;29;20464;-90
2022/06/21 11:28:44;;;;;;;2.08;1.85;;;;;;;21.03;51.46;99554.94;4905282;29;20501;-90
2022/06/21 11:31:37;;;;;;;3.08;2.03;;;;;;;21.06;50.46;99550.94;4920101;29;20059;-90
2022/06/21 11:34:09;;;;;;;3.25;2.20;;;;;;;21.06;50.16;99551.78;4905401;29;20038;-88
2022/06/21 11:36:55;;;;;;;5.28;2.70;;;;;;;21.05;49.03;99550.09;4918038;29;20049;-88
2022/06/21 11:39:48;;;;;;;3.97;2.30;;;;;;;21.05;49.21;99549.28;4913548;29;20033;-92
2022/06/21 11:42:26;;;;;;;4.47;2.67;;;;;;;21.08;49.58;99548.00;4913956;29;20032;-92
2022/06/21 11:45:18;;;;;;;;;;;;;;;21.12;48.84;99541.91;4911458;29;20387;-94
2022/06/21 11:48:12;;;;;;;3.95;2.80;;;;;;;21.11;48.99;99542.97;4934947;29;20372;-93
2022/06/21 11:51:11;;;;;;;2.47;1.85;;;;;;;21.19;49.90;99545.44;4939459;29;20047;-93
2022/06/21 11:54:03;;;;;;;4.50;2.95;;;;;;;21.29;48.87;99545.03;4940952;29;20469;-92
2022/06/21 11:56:49;;;;;;;5.97;3.30;;;;;;;21.32;48.90;99550.03;4926265;29;20138;-94
2022/06/21 11:59:17;;;;;;;5.07;2.80;;;;;;;21.27;48.42;99537.06;4925186;29;20027;-92
2022/06/21 12:01:59;;;;;;;6.65;3.33;;;;;;;21.27;48.89;99533.50;4927308;29;20036;-93
2022/06/21 12:04:33;;;;;;;6.93;2.60;;;;;;;21.29;48.95;99528.72;4906923;29;20047;-94
2022/06/21 12:07:10;;;;;;;6.68;2.75;;;;;;;21.29;48.89;99532.25;4921661;29;20031;-85
2022/06/21 12:09:49;;;;;;;6.50;2.92;;;;;;;21.32;48.50;99515.50;4927928;29;20197;-85
2022/06/21 12:12:18;;;;;;;5.60;3.28;;;;;;;21.43;48.20;99522.13;4911248;29;20027;-84
2022/06/21 12:15:17;;;;;;;4.82;2.75;;;;;;;21.41;47.21;99507.91;4922313;29;20398;-85
2022/06/21 12:17:58;;;;;;;4.00;2.50;;;;;;;21.39;48.07;99512.75;4925068;29;20050;-85
2022/06/21 12:20:41;;;;;;;5.93;3.20;;;;;;;21.39;48.36;99510.00;4920633;29;20054;-86
2022/06/21 12:23:13;;;;;;;4.40;2.50;;;;;;;21.41;48.88;99504.34;4911683;29;20027;-84
2022/06/21 12:25:38;;;;;;;4.13;2.78;;;;;;;21.40;47.71;99506.25;4927569;29;20040;-84
2022/06/21 12:28:22;;;;;;;3.55;2.28;;;;;;;21.41;47.90;99504.34;4924652;29;20038;-83
2022/06/21 12:30:48;;;;;;;4.75;2.50;;;;;;;21.43;47.97;99499.53;4926593;29;20122;-84
2022/06/21 12:33:14;;;;;;;6.18;2.60;;;;;;;21.49;47.85;99502.19;4908118;29;20155;-84
2022/06/21 12:35:45;;;;;;;3.72;2.55;;;;;;;21.53;47.05;99497.97;4912863;29;20585;-84
2022/06/21 12:38:15;;;;;;;4.82;2.95;;;;;;;21.65;46.81;99504.38;4917092;29;20398;-86
2022/06/21 12:41:02;;;;;;;5.85;2.85;;;;;;;21.68;47.61;99512.09;4925135;29;20031;-84
2022/06/21 12:43:34;;;;;;;4.55;2.63;;;;;;;21.68;47.86;99506.66;4926328;29;20051;-85
2022/06/21 12:46:19;;;;;;;5.22;2.35;;;;;;;21.71;48.13;99501.81;4924995;29;20039;-84
2022/06/21 12:48:54;;;;;;;5.32;2.78;;;;;;;21.81;48.15;99502.19;4925588;29;20118;-85
2022/06/21 12:51:29;;;;;;;4.78;2.60;;;;;;;21.84;46.39;99513.47;4907363;29;20028;-70
2022/06/21 12:54:32;;;;;;;3.33;2.20;;;;;;;21.84;46.59;99504.47;4922374;29;20026;-70
2022/06/21 12:57:27;;;;;;;6.60;2.67;;;;;;;21.90;46.28;99500.84;4847549;29;20482;-70
2022/06/21 13:00:04;;;;;;;5.63;2.92;;;;;;;21.90;44.37;99503.56;4922466;29;20479;-71
2022/06/21 13:03:05;;;;;;;5.40;2.50;;;;;;;21.89;44.30;99499.19;4940435;29;20542;-70
2022/06/21 13:05:52;;;;;;;3.67;2.10;;;;;;;21.91;45.22;99502.53;4920782;29;20047;-70
2022/06/21 13:08:28;;;;;;;3.65;2.63;;;;;;;21.95;45.19;99504.56;4940407;29;20039;-74
2022/06/21 13:11:26;;;;;;;2.40;1.70;;;;;;;21.99;46.02;99489.44;4940629;29;20035;-84
2022/06/21 13:14:03;;;;;;;4.80;1.90;;;;;;;22.02;45.07;99485.44;4926029;29;20036;-84
2022/06/21 13:16:57;;;;;;;4.80;2.38;;;;;;;22.07;46.02;99498.41;4943749;29;20058;-84
2022/06/21 13:19:28;;;;;;;3.17;2.25;;;;;;;22.04;44.49;99498.88;4941214;29;20034;-94
2022/06/21 13:22:16;;;;;;;3.78;2.00;;;;;;;22.00;45.29;99503.91;4929629;29;20027;-84
2022/06/21 13:24:48;;;;;;;3.75;2.10;;;;;;;21.98;45.90;99508.75;4913853;29;20035;-83
2022/06/21 13:27:22;;;;;;;3.03;2.47;;;;;;;21.98;44.95;99501.41;4931119;29;21054;-84
2022/06/21 13:30:00;;;;;;;3.63;1.58;;;;;;;21.97;45.52;99504.34;4942311;29;20079;-84
2022/06/21 13:32:31;;;;;;;3.70;1.55;;;;;;;22.00;45.42;99493.84;4929452;29;20130;-84
2022/06/21 13:35:17;;;;;;;2.85;1.67;;;;;;;22.03;46.25;99489.88;4905092;29;20035;-84
2022/06/21 13:37:59;;;;;;;8.05;2.20;;;;;;;22.06;43.91;99494.88;4910131;29;20041;-84